KGWO

Greenwood-Leflore Airport

Greenwood, Mississippi, USA
METAR KGWO 221453Z AUTO 10007KT 10SM CLR 12/06 A3028 RMK AO2 SLP253 T01170056 53005
Observed Flight Rules
Oct-22 @ 14:53 UTC (26 minutes ago) Visual Flight Rules
Wind Visibility Clouds
100° at 7 knots 10 miles
  • Clear skies
Temperatures Readings
Current 12°C / 54°F
Dewpoint 6°C / 43°F
Humidity 67%
Altimeter 30.28" Hg
Pressure 1025.3 hPa
Elevation 44
METAR KGWO 221453Z AUTO 10007KT 10SM CLR 12/06 A3028 RMK AO2 SLP253 T01170056 53005
Observed Flight Rules
Oct-22 @ 14:53 UTC
(26 minutes ago)
VFR
Wind Visibility
100° at 7 knots 10 miles
Clouds
  • Clear skies
Temperature Dewpoint
12°C / 54°F 6°C / 43°F
Humidity Altimeter Pressure
67% 30.28" Hg 1025.3 hPa